createdAt,value
2023-03-15T00:00:27.511Z,54.29
2023-03-15T00:03:15.070Z,57.43
2023-03-15T00:05:42.804Z,60.62
2023-03-15T00:08:12.433Z,63.64
2023-03-15T00:10:40.070Z,61.47
2023-03-15T00:13:07.941Z,52.84
2023-03-15T00:15:35.626Z,54.07
2023-03-15T00:18:06.335Z,57.20
2023-03-15T00:20:34.095Z,59.86
2023-03-15T00:23:01.755Z,61.03
2023-03-15T00:25:29.525Z,63.44
2023-03-15T00:27:57.183Z,57.76
2023-03-15T00:30:24.844Z,54.89
2023-03-15T00:32:54.093Z,57.47
2023-03-15T00:35:21.923Z,59.85
2023-03-15T00:37:49.674Z,61.49
2023-03-15T00:40:17.333Z,62.44
2023-03-15T00:42:50.217Z,56.86
2023-03-15T00:45:17.993Z,55.92
2023-03-15T00:47:45.645Z,58.16
2023-03-15T00:50:13.409Z,60.41
2023-03-15T00:52:42.198Z,61.63
2023-03-15T00:55:09.864Z,65.25
2023-03-15T00:57:37.727Z,59.44
2023-03-15T01:00:06.204Z,53.39
2023-03-15T01:02:34.409Z,53.50
2023-03-15T01:05:02.171Z,57.54
2023-03-15T01:07:29.908Z,58.35
2023-03-15T01:09:57.531Z,60.47
2023-03-15T01:12:25.231Z,63.09
2023-03-15T01:14:52.995Z,63.27
2023-03-15T01:17:20.655Z,55.39
2023-03-15T01:19:48.316Z,56.14
2023-03-15T01:22:15.982Z,58.66
2023-03-15T01:24:43.640Z,60.29
2023-03-15T01:27:11.312Z,62.67
2023-03-15T01:29:39.068Z,61.77
2023-03-15T01:32:06.728Z,54.36
2023-03-15T01:34:34.696Z,54.62
2023-03-15T01:37:03.176Z,57.45
2023-03-15T01:39:31.050Z,59.68
2023-03-15T01:41:58.709Z,61.06
2023-03-15T01:44:26.470Z,62.30
2023-03-15T01:46:54.168Z,62.05
2023-03-15T01:49:23.085Z,55.27
2023-03-15T01:51:50.890Z,54.37
2023-03-15T01:54:18.549Z,56.73
2023-03-15T01:56:46.211Z,59.39
2023-03-15T01:59:13.874Z,61.36
2023-03-15T02:01:46.012Z,62.49
2023-03-15T02:04:13.803Z,58.39
2023-03-15T02:06:46.897Z,55.70
2023-03-15T02:09:15.286Z,57.68
2023-03-15T02:11:43.042Z,59.93
2023-03-15T02:14:11.210Z,61.44
2023-03-15T02:16:38.956Z,62.53
2023-03-15T02:19:06.746Z,60.01
2023-03-15T02:21:34.502Z,53.37
2023-03-15T02:24:02.163Z,54.30
2023-03-15T02:26:29.839Z,56.88
2023-03-15T02:28:57.697Z,59.15
2023-03-15T02:31:25.478Z,60.46
2023-03-15T02:33:53.231Z,62.07
2023-03-15T02:36:20.887Z,61.41
2023-03-15T02:38:48.763Z,56.24
2023-03-15T02:41:16.410Z,55.75
2023-03-15T02:43:44.278Z,57.69
2023-03-15T02:46:11.974Z,58.84
2023-03-15T02:48:39.666Z,60.98
2023-03-15T02:51:07.372Z,62.49
2023-03-15T02:53:35.131Z,62.66
2023-03-15T02:56:03.720Z,53.41
2023-03-15T02:58:32.499Z,52.29
2023-03-15T03:01:00.288Z,54.65
2023-03-15T03:03:28.039Z,57.08
2023-03-15T03:05:55.798Z,59.33
2023-03-15T03:08:23.561Z,61.18
2023-03-15T03:10:51.221Z,61.90
2023-03-15T03:13:18.884Z,65.03
2023-03-15T03:15:46.651Z,59.06
2023-03-15T03:18:14.309Z,53.19
2023-03-15T03:20:42.174Z,55.45
2023-03-15T03:23:09.936Z,57.87
2023-03-15T03:25:37.799Z,59.60
2023-03-15T03:28:05.466Z,60.02
2023-03-15T03:30:33.258Z,61.00
2023-03-15T03:33:01.068Z,62.67
2023-03-15T03:35:28.960Z,62.89
2023-03-15T03:37:56.720Z,52.53
2023-03-15T03:40:24.386Z,52.02
2023-03-15T03:42:52.044Z,54.55
2023-03-15T03:45:19.669Z,57.33
2023-03-15T03:47:48.186Z,59.07
2023-03-15T03:50:15.953Z,60.46
2023-03-15T03:52:45.350Z,61.35
2023-03-15T03:55:13.955Z,63.02
2023-03-15T03:57:41.698Z,57.82
2023-03-15T04:00:09.978Z,53.38
2023-03-15T04:02:37.670Z,55.14
2023-03-15T04:05:05.667Z,56.64
2023-03-15T04:07:33.368Z,59.24
2023-03-15T04:10:02.770Z,60.96
2023-03-15T04:12:30.561Z,61.28
2023-03-15T04:14:58.296Z,62.69
2023-03-15T04:17:25.973Z,60.55
2023-03-15T04:19:53.665Z,52.34
2023-03-15T04:22:21.385Z,52.71
2023-03-15T04:24:50.886Z,55.37
2023-03-15T04:27:18.552Z,57.78
2023-03-15T04:29:46.336Z,58.68
2023-03-15T04:32:14.083Z,60.42
2023-03-15T04:34:41.705Z,62.29
2023-03-15T04:37:09.512Z,65.51
2023-03-15T04:39:37.278Z,57.41
2023-03-15T04:42:04.939Z,50.74
2023-03-15T04:44:32.600Z,51.69
2023-03-15T04:47:00.749Z,54.71
2023-03-15T04:49:28.538Z,56.79
2023-03-15T04:51:56.405Z,58.83
2023-03-15T04:54:25.094Z,59.78
2023-03-15T04:56:52.860Z,61.42
2023-03-15T04:59:20.623Z,62.54
2023-03-15T05:01:48.392Z,63.74
2023-03-15T05:04:16.665Z,55.71
2023-03-15T05:06:44.424Z,52.64
2023-03-15T05:09:18.739Z,54.45
2023-03-15T05:11:46.838Z,56.88
2023-03-15T05:14:14.574Z,58.07
2023-03-15T05:16:43.365Z,60.11
2023-03-15T05:19:11.549Z,60.57
2023-03-15T05:21:39.302Z,61.44
2023-03-15T05:24:07.275Z,67.00
2023-03-15T05:26:35.141Z,62.61
2023-03-15T05:29:04.032Z,51.85
2023-03-15T05:31:37.208Z,50.60
2023-03-15T05:34:05.088Z,53.28
2023-03-15T05:36:32.951Z,55.91
2023-03-15T05:39:03.281Z,56.64
2023-03-15T05:41:31.038Z,58.80
2023-03-15T05:43:58.707Z,59.51
2023-03-15T05:46:26.463Z,61.73
2023-03-15T05:48:54.636Z,65.67
2023-03-15T05:51:22.300Z,59.93
2023-03-15T05:53:50.268Z,51.10
2023-03-15T05:56:17.973Z,50.79
2023-03-15T05:58:45.693Z,53.16
2023-03-15T06:01:13.968Z,55.75
2023-03-15T06:03:41.843Z,56.97
2023-03-15T06:06:09.790Z,59.30
2023-03-15T06:08:37.571Z,60.64
2023-03-15T06:11:05.228Z,61.60
2023-03-15T06:13:33.425Z,64.43
2023-03-15T06:16:01.269Z,64.88
2023-03-15T06:18:28.928Z,52.80
2023-03-15T06:20:56.692Z,49.45
2023-03-15T06:23:24.356Z,52.43
2023-03-15T06:25:52.117Z,54.40
2023-03-15T06:28:19.799Z,55.30
2023-03-15T06:30:47.607Z,57.62
2023-03-15T06:33:15.408Z,59.08
2023-03-15T06:35:43.293Z,60.37
2023-03-15T06:38:12.576Z,60.94
2023-03-15T06:40:40.339Z,65.26
2023-03-15T06:43:08.632Z,63.29
2023-03-15T06:45:36.379Z,51.63
2023-03-15T06:48:04.060Z,48.54
2023-03-15T06:50:44.237Z,51.21
2023-03-15T06:53:14.416Z,53.88
2023-03-15T06:55:42.385Z,57.35
2023-03-15T06:58:10.070Z,58.69
2023-03-15T07:00:37.813Z,59.59
2023-03-15T07:03:05.580Z,59.31
2023-03-15T07:05:33.240Z,61.45
2023-03-15T07:08:01.004Z,62.90
2023-03-15T07:10:28.669Z,62.32
2023-03-15T07:12:56.436Z,52.83
2023-03-15T07:15:24.094Z,51.10
2023-03-15T07:17:51.754Z,52.40
2023-03-15T07:20:19.439Z,55.56
2023-03-15T07:22:47.186Z,55.90
2023-03-15T07:25:14.947Z,58.46
2023-03-15T07:27:42.608Z,59.76
2023-03-15T07:30:10.279Z,60.36
2023-03-15T07:32:39.294Z,61.84
2023-03-15T07:35:07.233Z,62.37
2023-03-15T07:37:34.898Z,63.16
2023-03-15T07:40:09.947Z,54.18
2023-03-15T07:42:37.691Z,51.43
2023-03-15T07:45:05.466Z,53.46
2023-03-15T07:47:33.213Z,55.23
2023-03-15T07:50:00.875Z,57.32
2023-03-15T07:52:28.540Z,59.22
2023-03-15T07:54:56.199Z,60.48
2023-03-15T07:57:23.860Z,61.22
2023-03-15T07:59:53.566Z,61.45
2023-03-15T08:02:21.563Z,63.09
2023-03-15T08:04:51.246Z,62.77
2023-03-15T08:07:18.907Z,51.62
2023-03-15T08:09:46.681Z,50.03
2023-03-15T08:12:14.437Z,52.54
2023-03-15T08:14:42.101Z,54.08
2023-03-15T08:17:28.704Z,56.80
2023-03-15T08:19:56.469Z,57.62
2023-03-15T08:22:24.337Z,59.97
2023-03-15T08:24:53.437Z,59.96
2023-03-15T08:27:21.241Z,60.88
2023-03-15T08:29:49.166Z,60.99
2023-03-15T08:32:16.826Z,62.08
2023-03-15T08:34:44.488Z,64.33
2023-03-15T08:37:12.156Z,57.95
2023-03-15T08:39:39.923Z,49.80
2023-03-15T08:42:07.683Z,50.75
2023-03-15T08:44:36.369Z,52.19
2023-03-15T08:47:05.372Z,55.68
2023-03-15T08:49:33.116Z,57.10
2023-03-15T08:52:00.984Z,58.02
2023-03-15T08:54:28.749Z,58.98
2023-03-15T08:56:56.509Z,60.24
2023-03-15T08:59:31.913Z,60.65
2023-03-15T09:01:59.934Z,61.27
2023-03-15T09:04:27.806Z,61.83
2023-03-15T09:06:55.656Z,62.02
2023-03-15T09:09:23.730Z,62.21
2023-03-15T09:11:51.704Z,67.44
2023-03-15T09:14:19.458Z,61.67
2023-03-15T09:16:47.173Z,50.10
2023-03-15T09:19:14.988Z,49.57
2023-03-15T09:21:44.825Z,51.35
2023-03-15T09:24:12.677Z,53.96
2023-03-15T09:26:41.254Z,53.15
2023-03-15T09:29:09.783Z,55.83
2023-03-15T09:31:37.603Z,58.21
2023-03-15T09:34:06.087Z,58.90
2023-03-15T09:36:33.848Z,58.72
2023-03-15T09:39:01.924Z,59.48
2023-03-15T09:41:29.585Z,60.29
2023-03-15T09:43:57.245Z,59.71
2023-03-15T09:46:26.142Z,60.15
2023-03-15T09:48:53.898Z,60.75
2023-03-15T09:51:21.560Z,60.47
2023-03-15T09:53:49.224Z,59.51
2023-03-15T09:56:16.887Z,59.12
2023-03-15T09:58:44.548Z,59.54
2023-03-15T10:01:12.267Z,59.51
2023-03-15T10:03:40.185Z,59.69
2023-03-15T10:06:07.943Z,59.81
2023-03-15T10:08:35.703Z,60.26
2023-03-15T10:11:03.366Z,60.26
2023-03-15T10:13:31.130Z,60.07
2023-03-15T10:15:58.954Z,59.72
2023-03-15T10:18:28.222Z,59.80
2023-03-15T10:20:55.960Z,59.95
2023-03-15T10:23:23.625Z,60.44
2023-03-15T10:25:51.386Z,60.65
2023-03-15T10:28:19.049Z,60.69
2023-03-15T10:30:46.821Z,60.75
2023-03-15T10:33:14.571Z,60.64
2023-03-15T10:35:43.041Z,60.55
2023-03-15T10:38:10.923Z,60.59
2023-03-15T10:40:38.886Z,60.49
2023-03-15T10:43:06.859Z,60.42
2023-03-15T10:45:35.436Z,60.48
2023-03-15T10:48:03.098Z,60.79
2023-03-15T10:50:31.168Z,60.46
2023-03-15T10:52:58.934Z,58.96
2023-03-15T10:55:27.558Z,58.47
2023-03-15T10:57:55.307Z,58.83
2023-03-15T11:00:24.269Z,58.93
2023-03-15T11:02:52.051Z,59.02
2023-03-15T11:05:20.022Z,58.82
2023-03-15T11:07:47.768Z,58.21
2023-03-15T11:10:18.277Z,57.22
2023-03-15T11:12:46.308Z,57.39
2023-03-15T11:15:17.204Z,57.59
2023-03-15T11:17:45.182Z,57.85
2023-03-15T11:20:15.085Z,57.80
2023-03-15T11:22:42.850Z,57.52
2023-03-15T11:25:10.725Z,57.59
2023-03-15T11:27:38.481Z,57.42
2023-03-15T11:30:06.143Z,57.69
2023-03-15T11:32:34.077Z,57.67
2023-03-15T11:35:01.977Z,57.86
2023-03-15T11:37:29.652Z,57.38
2023-03-15T11:40:08.830Z,57.22
2023-03-15T11:42:38.994Z,57.24
2023-03-15T11:45:06.758Z,56.99
2023-03-15T11:47:34.480Z,57.10
2023-03-15T11:50:02.183Z,57.24
2023-03-15T11:52:30.332Z,57.33
2023-03-15T11:54:58.054Z,57.33
2023-03-15T11:57:25.783Z,57.01
2023-03-15T11:59:53.581Z,56.79
2023-03-15T12:02:21.777Z,57.01
2023-03-15T12:04:49.805Z,57.12
2023-03-15T12:07:17.560Z,57.06
2023-03-15T12:09:45.218Z,57.07
2023-03-15T12:12:12.882Z,56.53
2023-03-15T12:14:40.542Z,56.23
2023-03-15T12:17:08.208Z,56.26
2023-03-15T12:19:36.073Z,56.32
2023-03-15T12:22:03.936Z,56.41
2023-03-15T12:24:31.598Z,56.18
2023-03-15T12:26:59.566Z,56.36
2023-03-15T12:29:27.339Z,56.33
2023-03-15T12:31:55.098Z,56.08
2023-03-15T12:34:22.972Z,55.88
2023-03-15T12:36:51.950Z,55.88
2023-03-15T12:39:19.817Z,55.99
2023-03-15T12:41:48.500Z,56.01
2023-03-15T12:44:16.162Z,56.24
2023-03-15T12:46:43.933Z,56.42
2023-03-15T12:49:11.690Z,56.31
2023-03-15T12:51:39.350Z,56.21
2023-03-15T12:54:07.013Z,56.14
2023-03-15T12:56:34.878Z,56.33
2023-03-15T12:59:02.644Z,56.34
2023-03-15T13:01:30.608Z,56.46
2023-03-15T13:03:58.477Z,56.38
2023-03-15T13:06:26.120Z,56.21
2023-03-15T13:08:54.010Z,56.14
2023-03-15T13:11:21.773Z,55.62
2023-03-15T13:13:49.537Z,55.32
2023-03-15T13:16:17.480Z,54.92
2023-03-15T13:18:45.371Z,54.42
2023-03-15T13:21:13.138Z,54.83
2023-03-15T13:23:42.717Z,55.09
2023-03-15T13:26:10.505Z,55.42
2023-03-15T13:28:38.374Z,55.54
2023-03-15T13:31:06.246Z,55.48
2023-03-15T13:33:34.226Z,55.64
2023-03-15T13:36:01.926Z,55.82
2023-03-15T13:38:29.736Z,55.57
2023-03-15T13:40:57.505Z,55.44
2023-03-15T13:43:25.881Z,55.31
2023-03-15T13:45:55.078Z,54.90
2023-03-15T13:48:22.740Z,54.88
2023-03-15T13:50:50.515Z,55.10
2023-03-15T13:53:18.137Z,55.25
2023-03-15T13:55:45.828Z,55.28
2023-03-15T13:58:13.489Z,55.16
2023-03-15T14:00:41.764Z,55.29
2023-03-15T14:03:09.587Z,55.23
2023-03-15T14:05:37.497Z,54.27
2023-03-15T14:08:06.103Z,53.10
2023-03-15T14:10:33.845Z,53.38
2023-03-15T14:13:01.888Z,53.69
2023-03-15T14:15:37.267Z,53.28
2023-03-15T14:18:05.130Z,53.78
2023-03-15T14:20:33.706Z,53.90
2023-03-15T14:23:01.321Z,54.11
2023-03-15T14:25:29.238Z,54.13
2023-03-15T14:27:57.019Z,53.96
2023-03-15T14:30:24.984Z,53.61
2023-03-15T14:32:52.779Z,53.98
2023-03-15T14:35:20.615Z,54.09
2023-03-15T14:37:48.470Z,54.30
2023-03-15T14:40:16.232Z,53.84
2023-03-15T14:42:44.002Z,53.54
2023-03-15T14:45:11.658Z,53.89
2023-03-15T14:47:54.995Z,53.94
2023-03-15T14:50:24.416Z,53.96
2023-03-15T14:52:52.361Z,54.08
2023-03-15T14:55:20.023Z,54.16
2023-03-15T14:57:47.787Z,53.81
2023-03-15T15:00:18.462Z,53.86
2023-03-15T15:02:46.301Z,54.03
2023-03-15T15:05:14.282Z,54.07
2023-03-15T15:07:42.232Z,54.07
2023-03-15T15:10:10.230Z,54.03
2023-03-15T15:12:38.283Z,54.28
2023-03-15T15:15:06.128Z,54.49
2023-03-15T15:17:33.788Z,54.53
2023-03-15T15:20:01.594Z,54.47
2023-03-15T15:22:29.528Z,54.64
2023-03-15T15:24:57.179Z,54.58
2023-03-15T15:27:24.842Z,54.66
2023-03-15T15:29:52.604Z,54.74
2023-03-15T15:32:20.228Z,54.65
2023-03-15T15:34:47.927Z,54.76
2023-03-15T15:37:16.318Z,54.68
2023-03-15T15:39:44.171Z,54.69
2023-03-15T15:42:11.934Z,54.52
2023-03-15T15:44:39.598Z,54.52
2023-03-15T15:47:07.360Z,54.73
2023-03-15T15:49:35.021Z,54.84
2023-03-15T15:52:02.785Z,55.07
2023-03-15T15:54:35.880Z,55.21
2023-03-15T15:57:03.642Z,55.37
2023-03-15T15:59:31.404Z,55.45
2023-03-15T16:02:06.749Z,55.60
2023-03-15T16:04:34.614Z,55.78
2023-03-15T16:07:02.636Z,55.72
2023-03-15T16:09:30.548Z,55.65
2023-03-15T16:11:58.663Z,55.52
2023-03-15T16:14:26.504Z,55.58
2023-03-15T16:16:54.251Z,55.78
2023-03-15T16:19:21.910Z,55.89
2023-03-15T16:21:49.980Z,56.00
2023-03-15T16:24:17.642Z,56.04
2023-03-15T16:26:45.508Z,56.13
2023-03-15T16:29:13.331Z,56.06
2023-03-15T16:31:42.569Z,56.09
2023-03-15T16:34:10.246Z,55.93
2023-03-15T16:36:38.102Z,55.55
2023-03-15T16:39:05.769Z,54.96
2023-03-15T16:41:33.528Z,54.69
2023-03-15T16:44:01.614Z,54.82
2023-03-15T16:46:31.125Z,54.46
2023-03-15T16:48:58.990Z,54.21
2023-03-15T16:51:27.450Z,54.30
2023-03-15T16:54:05.026Z,54.49
2023-03-15T16:56:36.807Z,54.47
2023-03-15T16:59:04.769Z,53.97
2023-03-15T17:01:35.639Z,54.26
2023-03-15T17:04:03.819Z,54.39
2023-03-15T17:06:31.750Z,54.73
2023-03-15T17:08:59.616Z,55.09
2023-03-15T17:11:27.381Z,55.24
2023-03-15T17:13:55.144Z,55.48
2023-03-15T17:16:23.418Z,55.80
2023-03-15T17:18:51.493Z,55.94
2023-03-15T17:21:19.873Z,56.26
2023-03-15T17:23:47.636Z,56.41
2023-03-15T17:26:15.526Z,56.56
2023-03-15T17:28:43.679Z,56.69
2023-03-15T17:31:24.479Z,56.78
2023-03-15T17:33:52.936Z,56.87
2023-03-15T17:36:21.404Z,56.84
2023-03-15T17:38:49.068Z,56.74
2023-03-15T17:41:16.768Z,56.45
2023-03-15T17:43:44.490Z,56.18
2023-03-15T17:46:12.257Z,56.11
2023-03-15T17:48:40.327Z,56.01
2023-03-15T17:51:08.090Z,56.07
2023-03-15T17:53:35.752Z,56.18
2023-03-15T17:56:03.426Z,56.32
2023-03-15T17:58:31.182Z,56.37
2023-03-15T18:00:58.879Z,56.52
2023-03-15T18:03:26.604Z,56.65
2023-03-15T18:05:54.471Z,56.76
2023-03-15T18:08:22.666Z,56.88
2023-03-15T18:10:50.523Z,56.92
2023-03-15T18:13:18.153Z,56.96
2023-03-15T18:15:45.944Z,57.06
2023-03-15T18:18:13.582Z,57.25
2023-03-15T18:20:41.377Z,57.32
2023-03-15T18:23:09.128Z,57.34
2023-03-15T18:25:36.792Z,57.45
2023-03-15T18:28:04.554Z,57.52
2023-03-15T18:30:32.322Z,57.63
2023-03-15T18:33:00.197Z,57.73
2023-03-15T18:35:28.156Z,57.84
2023-03-15T18:37:57.553Z,58.01
2023-03-15T18:40:25.218Z,58.08
2023-03-15T18:42:52.977Z,58.13
2023-03-15T18:45:20.638Z,58.32
2023-03-15T18:47:48.402Z,58.40
2023-03-15T18:50:16.069Z,58.53
2023-03-15T18:52:43.826Z,58.58
2023-03-15T18:55:11.488Z,58.71
2023-03-15T18:57:41.813Z,58.79
2023-03-15T19:00:15.724Z,58.82
2023-03-15T19:02:43.507Z,58.95
2023-03-15T19:05:11.862Z,58.94
2023-03-15T19:07:39.517Z,59.01
2023-03-15T19:10:07.196Z,59.03
2023-03-15T19:12:34.951Z,59.06
2023-03-15T19:15:02.715Z,59.14
2023-03-15T19:17:30.380Z,59.18
2023-03-15T19:19:58.141Z,59.34
2023-03-15T19:22:29.283Z,59.38
2023-03-15T19:24:56.947Z,59.41
2023-03-15T19:27:24.982Z,59.56
2023-03-15T19:29:52.780Z,59.66
2023-03-15T19:32:21.056Z,59.78
2023-03-15T19:34:48.949Z,60.03
2023-03-15T19:37:16.599Z,59.94
2023-03-15T19:39:44.654Z,59.98
2023-03-15T19:42:12.427Z,60.02
2023-03-15T19:44:40.185Z,59.97
2023-03-15T19:47:07.857Z,60.15
2023-03-15T19:49:36.532Z,60.19
2023-03-15T19:52:04.515Z,60.30
2023-03-15T19:54:34.317Z,60.30
2023-03-15T19:57:01.975Z,60.45
2023-03-15T19:59:29.739Z,60.44
2023-03-15T20:01:57.453Z,60.46
2023-03-15T20:04:25.316Z,60.65
2023-03-15T20:06:53.137Z,60.67
2023-03-15T20:09:20.999Z,60.76
2023-03-15T20:11:48.763Z,60.83
2023-03-15T20:14:18.885Z,60.84
2023-03-15T20:16:46.651Z,60.97
2023-03-15T20:19:14.416Z,61.01
2023-03-15T20:21:44.229Z,61.03
2023-03-15T20:24:12.093Z,61.16
2023-03-15T20:26:39.773Z,61.32
2023-03-15T20:29:08.260Z,61.37
2023-03-15T20:31:36.067Z,61.28
2023-03-15T20:34:05.915Z,61.40
2023-03-15T20:36:33.764Z,61.40
2023-03-15T20:39:01.566Z,61.56
2023-03-15T20:41:29.312Z,61.54
2023-03-15T20:43:57.079Z,61.60
2023-03-15T20:46:24.890Z,61.54
2023-03-15T20:48:52.717Z,61.77
2023-03-15T20:51:21.182Z,61.80
2023-03-15T20:53:48.851Z,61.82
2023-03-15T20:56:18.149Z,61.83
2023-03-15T20:58:47.577Z,61.78
2023-03-15T21:01:17.009Z,61.72
2023-03-15T21:03:45.011Z,61.70
2023-03-15T21:06:12.976Z,61.67
2023-03-15T21:08:41.788Z,61.65
2023-03-15T21:11:09.540Z,61.71
2023-03-15T21:13:37.509Z,61.68
2023-03-15T21:16:05.446Z,61.67
2023-03-15T21:18:33.251Z,61.58
2023-03-15T21:21:01.015Z,61.69
2023-03-15T21:23:31.245Z,61.77
2023-03-15T21:25:59.297Z,61.67
2023-03-15T21:28:27.082Z,61.74
2023-03-15T21:30:54.821Z,61.79
2023-03-15T21:33:22.682Z,61.75
2023-03-15T21:35:50.549Z,61.69
2023-03-15T21:38:18.307Z,61.73
2023-03-15T21:40:45.979Z,61.77
2023-03-15T21:43:14.058Z,61.80
2023-03-15T21:45:42.833Z,61.83
2023-03-15T21:48:11.003Z,61.91
2023-03-15T21:50:38.766Z,61.84
2023-03-15T21:53:06.431Z,61.91
2023-03-15T21:55:34.709Z,62.02
2023-03-15T21:58:02.380Z,62.10
2023-03-15T22:00:30.438Z,62.13
2023-03-15T22:02:58.203Z,62.13
2023-03-15T22:05:25.902Z,62.18
2023-03-15T22:07:53.644Z,67.64
2023-03-15T22:10:22.906Z,68.61
2023-03-15T22:12:54.277Z,51.79
2023-03-15T22:15:22.246Z,48.81
2023-03-15T22:17:50.724Z,50.45
2023-03-15T22:20:18.811Z,51.95
2023-03-15T22:22:46.454Z,52.82
2023-03-15T22:25:14.252Z,53.84
2023-03-15T22:27:42.090Z,54.83
2023-03-15T22:30:09.857Z,55.18
2023-03-15T22:32:37.551Z,55.90
2023-03-15T22:35:05.897Z,56.41
2023-03-15T22:37:34.894Z,56.98
2023-03-15T22:40:02.534Z,57.54
2023-03-15T22:42:30.214Z,57.78
2023-03-15T22:44:57.881Z,58.07
2023-03-15T22:47:25.548Z,58.55
2023-03-15T22:49:54.847Z,58.73
2023-03-15T22:52:22.501Z,58.96
2023-03-15T22:54:50.168Z,59.32
2023-03-15T22:57:17.827Z,59.58
2023-03-15T22:59:45.497Z,59.84
2023-03-15T23:02:13.354Z,60.11
2023-03-15T23:04:41.311Z,60.26
2023-03-15T23:07:09.087Z,60.42
2023-03-15T23:09:36.859Z,60.84
2023-03-15T23:12:04.722Z,61.01
2023-03-15T23:14:32.393Z,61.18
2023-03-15T23:17:00.156Z,61.39
2023-03-15T23:19:27.912Z,61.60
2023-03-15T23:21:55.575Z,61.72
2023-03-15T23:24:24.873Z,61.89
2023-03-15T23:26:56.597Z,61.89
2023-03-15T23:29:24.297Z,61.92
2023-03-15T23:31:52.163Z,62.27
2023-03-15T23:34:19.821Z,68.57
2023-03-15T23:36:47.484Z,69.24
2023-03-15T23:39:15.250Z,53.92
2023-03-15T23:41:45.781Z,49.79
2023-03-15T23:44:13.544Z,50.78
2023-03-15T23:46:41.515Z,52.16
2023-03-15T23:49:09.376Z,53.61
2023-03-15T23:51:37.054Z,54.26
2023-03-15T23:54:04.701Z,55.00
2023-03-15T23:56:32.484Z,55.67
2023-03-15T23:59:00.229Z,56.65
